createdAt,value
2019-01-31T00:01:04.637Z,2.90
2019-01-31T00:04:16.622Z,3.23
2019-01-31T00:07:21.427Z,3.10
2019-01-31T00:10:13.470Z,1.93
2019-01-31T00:13:14.602Z,2.00
2019-01-31T00:16:23.655Z,1.17
2019-01-31T00:19:13.121Z,2.63
2019-01-31T00:22:19.114Z,1.67
2019-01-31T00:25:05.718Z,0.70
2019-01-31T00:27:50.994Z,2.60
2019-01-31T00:30:55.218Z,2.70
2019-01-31T00:33:52.451Z,1.00
2019-01-31T00:37:03.282Z,1.10
2019-01-31T00:40:08.873Z,1.07
2019-01-31T00:43:13.031Z,1.90
2019-01-31T00:46:08.076Z,1.33
2019-01-31T00:49:24.473Z,0.93
2019-01-31T00:52:26.662Z,13.47
2019-01-31T00:55:34.051Z,3.00
2019-01-31T00:58:32.228Z,1.03
2019-01-31T01:01:37.018Z,2.40
2019-01-31T01:04:50.078Z,0.60
2019-01-31T01:07:53.869Z,1.70
2019-01-31T01:10:54.930Z,1.27
2019-01-31T01:14:08.170Z,1.53
2019-01-31T01:16:56.014Z,1.20
2019-01-31T01:20:21.742Z,1.63
2019-01-31T01:23:33.047Z,3.20
2019-01-31T01:26:29.898Z,1.33
2019-01-31T01:29:23.152Z,1.90
2019-01-31T01:32:08.019Z,1.17
2019-01-31T01:35:14.881Z,5.00
2019-01-31T01:38:08.338Z,1.23
2019-01-31T01:41:12.017Z,1.83
2019-01-31T01:44:12.412Z,1.20
2019-01-31T01:46:53.447Z,0.87
2019-01-31T01:49:37.880Z,1.47
2019-01-31T01:52:45.421Z,1.40
2019-01-31T01:55:26.075Z,1.17
2019-01-31T01:58:22.682Z,0.80
2019-01-31T02:01:38.476Z,1.40
2019-01-31T02:04:40.219Z,1.80
2019-01-31T02:07:29.602Z,0.70
2019-01-31T02:10:39.865Z,1.10
2019-01-31T02:13:40.834Z,2.80
2019-01-31T02:16:52.739Z,2.03
2019-01-31T02:19:52.939Z,2.70
2019-01-31T02:22:46.357Z,1.47
2019-01-31T02:26:12.626Z,1.13
2019-01-31T02:29:12.515Z,1.13
2019-01-31T02:32:11.092Z,2.03
2019-01-31T02:35:15.153Z,1.30
2019-01-31T02:38:24.299Z,1.87
2019-01-31T02:41:35.388Z,1.00
2019-01-31T02:44:36.238Z,1.40
2019-01-31T02:47:49.018Z,0.80
2019-01-31T02:50:47.432Z,1.47
2019-01-31T02:53:35.819Z,0.93
2019-01-31T02:56:21.590Z,0.80
2019-01-31T02:59:31.898Z,1.80
2019-01-31T03:02:09.569Z,2.40
2019-01-31T03:04:58.352Z,5.17
2019-01-31T03:07:53.963Z,1.20
2019-01-31T03:10:48.046Z,1.57
2019-01-31T03:13:27.615Z,1.60
2019-01-31T03:16:41.036Z,0.80
2019-01-31T03:19:57.713Z,1.17
2019-01-31T03:22:57.878Z,2.00
2019-01-31T03:26:19.341Z,1.27
2019-01-31T03:29:24.252Z,2.13
2019-01-31T03:32:43.171Z,1.80
2019-01-31T03:35:44.309Z,1.73
2019-01-31T03:38:54.688Z,1.97
2019-01-31T03:41:44.726Z,3.27
2019-01-31T03:44:36.974Z,1.60
2019-01-31T03:47:13.138Z,2.87
2019-01-31T03:50:19.295Z,2.03
2019-01-31T03:53:05.498Z,2.33
2019-01-31T03:55:58.687Z,2.70
2019-01-31T03:58:51.471Z,1.87
2019-01-31T04:02:13.981Z,2.20
2019-01-31T04:05:03.826Z,1.90
2019-01-31T04:07:32.875Z,6.63
2019-01-31T04:10:01.863Z,2.23
2019-01-31T04:12:30.915Z,2.57
2019-01-31T04:15:00.454Z,8.20
2019-01-31T04:17:29.711Z,3.27
2019-01-31T04:19:58.792Z,3.80
2019-01-31T04:22:28.745Z,3.27
2019-01-31T04:24:57.870Z,2.80
2019-01-31T04:27:27.012Z,3.87
2019-01-31T04:29:56.319Z,3.17
2019-01-31T04:32:25.513Z,3.80
2019-01-31T04:34:55.507Z,3.33
2019-01-31T04:37:24.560Z,4.10
2019-01-31T04:39:53.637Z,4.77
2019-01-31T04:42:22.698Z,3.23
2019-01-31T04:44:51.930Z,4.10
2019-01-31T04:47:20.975Z,5.67
2019-01-31T04:49:50.117Z,2.97
2019-01-31T04:52:19.529Z,4.70
2019-01-31T04:54:48.670Z,2.30
2019-01-31T04:57:17.714Z,2.87
2019-01-31T04:59:46.806Z,5.10
2019-01-31T05:02:15.800Z,4.37
2019-01-31T05:04:44.773Z,3.53
2019-01-31T05:07:14.674Z,2.63
2019-01-31T05:09:43.734Z,3.20
2019-01-31T05:12:12.839Z,2.83
2019-01-31T05:14:42.535Z,4.60
2019-01-31T05:17:11.499Z,5.27
2019-01-31T05:19:40.585Z,4.07
2019-01-31T05:22:09.595Z,3.13
2019-01-31T05:24:38.800Z,3.30
2019-01-31T05:27:07.916Z,4.63
2019-01-31T05:29:37.139Z,2.83
2019-01-31T05:32:06.418Z,3.03
2019-01-31T05:34:35.695Z,4.63
2019-01-31T05:37:04.814Z,2.73
2019-01-31T05:39:33.820Z,4.37
2019-01-31T05:42:02.875Z,3.07
2019-01-31T05:44:32.279Z,6.47
2019-01-31T05:47:01.390Z,3.07
2019-01-31T05:49:30.446Z,3.43
2019-01-31T05:51:59.734Z,5.03
2019-01-31T05:54:28.699Z,3.33
2019-01-31T05:56:57.765Z,4.90
2019-01-31T05:59:26.859Z,3.97
2019-01-31T06:01:55.948Z,4.40
2019-01-31T06:04:25.003Z,4.10
2019-01-31T06:06:54.786Z,6.33
2019-01-31T06:09:23.939Z,5.47
2019-01-31T06:11:53.042Z,3.47
2019-01-31T06:14:22.006Z,5.73
2019-01-31T06:16:51.013Z,4.20
2019-01-31T06:19:19.972Z,4.30
2019-01-31T06:21:48.995Z,4.23
2019-01-31T06:24:18.176Z,4.07
2019-01-31T06:26:47.159Z,4.87
2019-01-31T06:29:16.744Z,5.67
2019-01-31T06:31:45.879Z,3.87
2019-01-31T06:34:15.578Z,6.13
2019-01-31T06:36:45.637Z,7.30
2019-01-31T06:39:14.874Z,5.13
2019-01-31T06:41:43.961Z,5.53
2019-01-31T06:44:13.662Z,4.93
2019-01-31T06:46:42.707Z,5.43
2019-01-31T06:49:11.846Z,3.97
2019-01-31T06:51:41.450Z,6.63
2019-01-31T06:54:10.529Z,5.00
2019-01-31T06:56:39.613Z,4.77
2019-01-31T06:59:08.839Z,5.17
2019-01-31T07:01:37.959Z,7.57
2019-01-31T07:04:07.075Z,8.47
2019-01-31T07:06:36.516Z,10.07
2019-01-31T07:09:08.958Z,8.40
2019-01-31T07:11:38.315Z,9.83
2019-01-31T07:14:07.409Z,9.10
2019-01-31T07:16:36.484Z,16.40
2019-01-31T07:19:05.945Z,7.63
2019-01-31T07:21:35.106Z,5.63
2019-01-31T07:24:04.191Z,9.63
2019-01-31T07:26:33.259Z,4.87
2019-01-31T07:29:02.790Z,5.83
2019-01-31T07:31:31.932Z,7.43
2019-01-31T07:34:01.203Z,4.70
2019-01-31T07:36:30.859Z,6.57
2019-01-31T07:39:00.258Z,8.27
2019-01-31T07:41:40.697Z,5.20
2019-01-31T07:44:00.745Z,6.90
2019-01-31T07:46:29.863Z,5.43
2019-01-31T07:48:58.915Z,4.90
2019-01-31T07:51:28.353Z,9.47
2019-01-31T07:53:57.467Z,6.83
2019-01-31T07:56:26.518Z,5.03
2019-01-31T07:58:55.586Z,7.70
2019-01-31T08:01:24.647Z,6.30
2019-01-31T08:04:02.212Z,5.90
2019-01-31T08:06:24.626Z,6.40
2019-01-31T08:08:53.743Z,6.37
2019-01-31T08:11:22.798Z,6.67
2019-01-31T08:13:51.846Z,6.70
2019-01-31T08:16:20.882Z,6.20
2019-01-31T08:18:49.936Z,6.33
2019-01-31T08:21:21.494Z,6.87
2019-01-31T08:23:50.542Z,5.90
2019-01-31T08:26:19.641Z,5.33
2019-01-31T08:28:48.774Z,6.03
2019-01-31T08:31:17.846Z,6.33
2019-01-31T08:33:47.068Z,5.60
2019-01-31T08:36:17.656Z,6.40
2019-01-31T08:38:46.744Z,7.20
2019-01-31T08:41:15.782Z,5.63
2019-01-31T08:43:46.701Z,12.57
2019-01-31T08:46:16.073Z,6.77
2019-01-31T08:48:45.162Z,5.10
2019-01-31T08:51:14.535Z,6.47
2019-01-31T08:53:43.602Z,4.83
2019-01-31T08:56:12.700Z,4.20
2019-01-31T08:58:41.769Z,5.40
2019-01-31T09:01:10.823Z,4.70
2019-01-31T09:03:39.914Z,5.53
2019-01-31T09:06:09.158Z,4.57
2019-01-31T09:08:38.369Z,5.80
2019-01-31T09:11:07.415Z,4.03
2019-01-31T09:13:38.210Z,6.03
2019-01-31T09:16:07.498Z,4.77
2019-01-31T09:18:36.551Z,7.27
2019-01-31T09:21:34.197Z,6.77
2019-01-31T09:24:46.203Z,4.60
2019-01-31T09:27:56.857Z,5.63
2019-01-31T09:30:54.329Z,4.80
2019-01-31T09:33:48.618Z,4.47
2019-01-31T09:36:40.323Z,5.57
2019-01-31T09:39:47.551Z,5.83
2019-01-31T09:42:51.405Z,5.53
2019-01-31T09:45:57.814Z,3.93
2019-01-31T09:49:05.102Z,3.77
2019-01-31T09:52:16.451Z,5.53
2019-01-31T09:55:03.138Z,4.27
2019-01-31T09:58:07.871Z,5.53
2019-01-31T10:01:23.009Z,5.80
2019-01-31T10:04:22.634Z,5.10
2019-01-31T10:07:18.007Z,4.73
2019-01-31T10:10:02.144Z,4.13
2019-01-31T10:12:47.636Z,4.97
2019-01-31T10:16:15.907Z,3.90
2019-01-31T10:19:14.451Z,6.40
2019-01-31T10:22:20.682Z,6.27
2019-01-31T10:25:13.337Z,5.70
2019-01-31T10:28:18.316Z,5.27
2019-01-31T10:31:36.384Z,4.30
2019-01-31T10:34:41.868Z,5.93
2019-01-31T10:37:44.658Z,5.63
2019-01-31T10:41:22.762Z,4.60
2019-01-31T10:44:47.127Z,5.03
2019-01-31T10:47:55.798Z,9.53
2019-01-31T10:51:15.428Z,6.50
2019-01-31T10:54:10.165Z,4.73
2019-01-31T10:57:24.937Z,5.67
2019-01-31T11:00:40.397Z,3.90
2019-01-31T11:03:47.770Z,5.00
2019-01-31T11:07:16.358Z,4.77
2019-01-31T11:10:22.609Z,4.47
2019-01-31T11:13:30.853Z,4.50
2019-01-31T11:16:59.514Z,5.47
2019-01-31T11:19:56.999Z,5.70
2019-01-31T11:22:52.868Z,4.70
2019-01-31T11:25:54.877Z,7.83
2019-01-31T11:29:05.021Z,5.57
2019-01-31T11:32:14.223Z,4.93
2019-01-31T11:34:52.741Z,4.60
2019-01-31T11:38:02.003Z,6.77
2019-01-31T11:41:25.347Z,7.13
2019-01-31T11:44:24.128Z,5.63
2019-01-31T11:46:58.685Z,9.43
2019-01-31T11:50:18.639Z,7.93
2019-01-31T11:53:34.719Z,6.70
2019-01-31T11:56:38.369Z,8.33
2019-01-31T11:59:08.010Z,7.43
2019-01-31T12:01:37.738Z,12.50
2019-01-31T12:04:15.607Z,12.97
2019-01-31T12:06:44.666Z,9.07
2019-01-31T12:09:21.583Z,7.53
2019-01-31T12:11:51.259Z,9.40
2019-01-31T12:14:20.310Z,6.20
2019-01-31T12:16:49.327Z,6.77
2019-01-31T12:19:18.359Z,7.13
2019-01-31T12:21:47.431Z,6.87
2019-01-31T12:24:16.868Z,6.07
2019-01-31T12:26:45.954Z,5.97
2019-01-31T12:29:15.014Z,6.43
2019-01-31T12:31:44.348Z,7.67
2019-01-31T12:34:13.319Z,6.03
2019-01-31T12:36:42.801Z,8.60
2019-01-31T12:39:12.617Z,7.27
2019-01-31T12:41:41.587Z,6.60
2019-01-31T12:44:10.627Z,6.13
2019-01-31T12:46:43.257Z,5.33
2019-01-31T12:49:15.663Z,5.53
2019-01-31T12:51:44.730Z,4.87
2019-01-31T12:54:13.878Z,7.40
2019-01-31T12:56:42.926Z,6.17
2019-01-31T12:59:11.975Z,5.57
2019-01-31T13:01:41.402Z,5.07
2019-01-31T13:04:10.438Z,5.97
2019-01-31T13:06:39.601Z,6.73
2019-01-31T13:09:10.600Z,5.03
2019-01-31T13:11:39.618Z,5.10
2019-01-31T13:14:08.713Z,5.43
2019-01-31T13:16:37.838Z,5.73
2019-01-31T13:19:06.872Z,5.40
2019-01-31T13:21:35.933Z,5.00
2019-01-31T13:24:05.087Z,6.20
2019-01-31T13:26:34.111Z,5.17
2019-01-31T13:29:03.179Z,6.10
2019-01-31T13:31:32.667Z,4.27
2019-01-31T13:34:01.634Z,6.73
2019-01-31T13:36:32.194Z,5.07
2019-01-31T13:39:01.830Z,4.70
2019-01-31T13:44:02.828Z,6.93
2019-01-31T13:46:31.802Z,5.37
2019-01-31T13:49:00.857Z,4.90
2019-01-31T13:51:30.428Z,6.37
2019-01-31T13:53:59.477Z,5.53
2019-01-31T13:56:28.515Z,4.30
2019-01-31T13:58:57.678Z,3.83
2019-01-31T14:01:26.774Z,5.73
2019-01-31T14:03:55.818Z,5.60
2019-01-31T14:06:44.064Z,4.97
2019-01-31T14:09:13.650Z,4.63
2019-01-31T14:11:42.688Z,4.87
2019-01-31T14:14:11.769Z,4.80
2019-01-31T14:16:47.769Z,4.17
2019-01-31T14:19:11.693Z,4.97
2019-01-31T14:21:40.772Z,5.43
2019-01-31T14:24:09.747Z,4.70
2019-01-31T14:26:38.705Z,4.97
2019-01-31T14:29:07.763Z,4.93
2019-01-31T14:31:36.822Z,4.37
2019-01-31T14:34:06.308Z,5.73
2019-01-31T14:36:36.658Z,4.47
2019-01-31T14:39:06.952Z,5.40
2019-01-31T14:41:36.028Z,4.07
2019-01-31T14:44:05.566Z,5.27
2019-01-31T14:46:34.626Z,4.10
2019-01-31T14:49:03.863Z,5.47
2019-01-31T14:51:33.058Z,3.57
2019-01-31T14:54:02.030Z,3.93
2019-01-31T14:56:31.074Z,4.60
2019-01-31T14:59:00.147Z,6.77
2019-01-31T15:01:29.219Z,4.70
2019-01-31T15:03:58.270Z,4.67
2019-01-31T15:06:27.502Z,5.50
2019-01-31T15:08:58.905Z,5.30
2019-01-31T15:11:28.471Z,5.03
2019-01-31T15:13:57.659Z,3.77
2019-01-31T15:16:26.690Z,5.07
2019-01-31T15:18:55.997Z,6.00
2019-01-31T15:21:25.083Z,4.87
2019-01-31T15:23:54.146Z,4.10
2019-01-31T15:26:23.177Z,5.27
2019-01-31T15:28:52.398Z,4.53
2019-01-31T15:31:21.443Z,5.17
2019-01-31T15:33:50.431Z,4.97
2019-01-31T15:36:19.585Z,4.53
2019-01-31T15:38:48.629Z,5.17
2019-01-31T15:41:17.673Z,5.23
2019-01-31T15:43:46.768Z,6.70
2019-01-31T15:46:17.930Z,6.17
2019-01-31T15:48:46.596Z,6.30
2019-01-31T15:51:15.726Z,6.57
2019-01-31T15:53:44.790Z,5.30
2019-01-31T15:56:13.835Z,4.33
2019-01-31T15:58:42.920Z,4.47
2019-01-31T16:01:13.318Z,6.60
2019-01-31T16:03:42.822Z,5.37
2019-01-31T16:06:11.890Z,4.80
2019-01-31T16:08:41.108Z,5.87
2019-01-31T16:11:10.748Z,4.63
2019-01-31T16:13:39.829Z,5.03
2019-01-31T16:16:09.040Z,5.10
2019-01-31T16:18:38.259Z,4.20
2019-01-31T16:21:07.442Z,5.47
2019-01-31T16:23:36.499Z,4.23
2019-01-31T16:26:05.586Z,5.00
2019-01-31T16:28:35.211Z,4.27
2019-01-31T16:31:04.266Z,4.57
2019-01-31T16:33:33.316Z,4.47
2019-01-31T16:36:02.489Z,5.20
2019-01-31T16:38:31.527Z,5.30
2019-01-31T16:41:00.602Z,5.33
2019-01-31T16:43:30.698Z,6.77
2019-01-31T16:45:59.749Z,4.03
2019-01-31T16:48:28.793Z,5.30
2019-01-31T16:50:57.867Z,6.67
2019-01-31T16:53:26.991Z,5.60
2019-01-31T16:55:56.060Z,5.27
2019-01-31T16:58:25.378Z,4.03
2019-01-31T17:00:54.414Z,6.60
2019-01-31T17:03:23.459Z,7.50
2019-01-31T17:05:52.522Z,7.90
2019-01-31T17:08:21.576Z,7.80
2019-01-31T17:10:50.881Z,7.33
2019-01-31T17:13:20.406Z,7.40
2019-01-31T17:15:49.446Z,6.20
2019-01-31T17:18:18.494Z,5.27
2019-01-31T17:20:47.614Z,4.60
2019-01-31T17:23:16.677Z,5.67
2019-01-31T17:25:45.722Z,9.30
2019-01-31T17:28:14.987Z,10.43
2019-01-31T17:30:44.032Z,7.77
2019-01-31T17:33:13.083Z,5.43
2019-01-31T17:35:42.151Z,7.33
2019-01-31T17:38:12.996Z,9.23
2019-01-31T17:40:43.965Z,10.13
2019-01-31T17:43:13.975Z,14.80
2019-01-31T17:45:43.046Z,20.77
2019-01-31T17:48:15.037Z,19.43
2019-01-31T17:50:44.603Z,26.77
2019-01-31T17:53:13.655Z,60.53
2019-01-31T17:55:42.715Z,59.43
2019-01-31T17:58:11.787Z,51.30
2019-01-31T18:01:05.822Z,58.83
2019-01-31T18:03:35.074Z,54.43
2019-01-31T18:06:04.289Z,53.00
2019-01-31T18:08:33.257Z,46.47
2019-01-31T18:11:02.326Z,46.50
2019-01-31T18:13:31.547Z,30.87
2019-01-31T18:16:01.142Z,44.97
2019-01-31T18:18:30.231Z,36.20
2019-01-31T18:20:59.351Z,37.90
2019-01-31T18:23:28.406Z,37.10
2019-01-31T18:25:57.734Z,28.33
2019-01-31T18:28:26.694Z,34.90
2019-01-31T18:30:55.737Z,23.07
2019-01-31T18:33:27.550Z,24.37
2019-01-31T18:35:56.098Z,27.90
2019-01-31T18:38:25.166Z,21.30
2019-01-31T18:40:54.489Z,21.00
2019-01-31T18:43:23.678Z,20.13
2019-01-31T18:45:53.735Z,25.90
2019-01-31T18:48:23.108Z,21.07
2019-01-31T18:50:52.082Z,21.80
2019-01-31T18:53:21.271Z,19.00
2019-01-31T18:55:50.494Z,13.27
2019-01-31T18:58:19.558Z,15.63
2019-01-31T19:00:49.889Z,12.83
2019-01-31T19:03:19.003Z,19.47
2019-01-31T19:05:48.038Z,16.53
2019-01-31T19:08:17.082Z,15.40
2019-01-31T19:10:46.289Z,12.70
2019-01-31T19:13:15.373Z,11.03
2019-01-31T19:15:46.366Z,15.67
2019-01-31T19:18:16.890Z,13.80
2019-01-31T19:20:45.926Z,18.80
2019-01-31T19:23:15.002Z,12.67
2019-01-31T19:25:44.059Z,12.47
2019-01-31T19:28:13.425Z,9.60
2019-01-31T19:30:42.545Z,9.80
2019-01-31T19:33:11.932Z,13.60
2019-01-31T19:35:41.009Z,10.90
2019-01-31T19:38:10.422Z,12.67
2019-01-31T19:40:44.589Z,9.83
2019-01-31T19:43:13.625Z,8.80
2019-01-31T19:45:44.857Z,10.90
2019-01-31T19:48:14.377Z,13.73
2019-01-31T19:50:43.778Z,11.57
2019-01-31T19:53:13.074Z,9.50
2019-01-31T19:55:42.274Z,11.33
2019-01-31T19:58:11.332Z,8.10
2019-01-31T20:00:40.490Z,12.53
2019-01-31T20:03:09.771Z,7.43
2019-01-31T20:05:38.845Z,8.13
2019-01-31T20:08:09.998Z,8.73
2019-01-31T20:10:39.266Z,9.47
2019-01-31T20:13:08.383Z,7.57
2019-01-31T20:15:37.456Z,10.90
2019-01-31T20:18:06.898Z,6.33
2019-01-31T20:20:37.261Z,9.93
2019-01-31T20:23:07.250Z,6.70
2019-01-31T20:25:36.318Z,7.20
2019-01-31T20:28:05.291Z,11.53
2019-01-31T20:30:34.555Z,9.67
2019-01-31T20:33:04.483Z,7.93
2019-01-31T20:35:33.538Z,8.20
2019-01-31T20:38:03.219Z,8.17
2019-01-31T20:40:34.817Z,7.67
2019-01-31T20:43:04.655Z,5.90
2019-01-31T20:45:33.709Z,5.80
2019-01-31T20:48:03.025Z,7.50
2019-01-31T20:50:33.313Z,7.13
2019-01-31T20:53:02.387Z,6.23
2019-01-31T20:55:31.469Z,5.60
2019-01-31T20:58:00.518Z,6.40
2019-01-31T21:00:33.550Z,8.03
2019-01-31T21:03:03.072Z,6.13
2019-01-31T21:05:32.186Z,5.87
2019-01-31T21:08:01.154Z,6.40
2019-01-31T21:10:30.253Z,6.00
2019-01-31T21:12:59.879Z,5.03
2019-01-31T21:15:29.409Z,6.50
2019-01-31T21:17:58.403Z,5.70
2019-01-31T21:20:27.578Z,6.47
2019-01-31T21:22:56.626Z,6.00
2019-01-31T21:25:25.670Z,4.90
2019-01-31T21:27:54.730Z,6.97
2019-01-31T21:30:34.870Z,4.43
2019-01-31T21:33:03.926Z,6.00
2019-01-31T21:35:32.970Z,6.13
2019-01-31T21:38:02.282Z,5.00
2019-01-31T21:40:33.722Z,6.40
2019-01-31T21:43:03.376Z,6.40
2019-01-31T21:45:33.067Z,5.70
2019-01-31T21:48:02.116Z,8.03
2019-01-31T21:50:31.223Z,7.37
2019-01-31T21:53:00.421Z,4.60
2019-01-31T21:55:29.463Z,5.40
2019-01-31T21:57:58.448Z,3.73
2019-01-31T22:00:29.970Z,4.97
2019-01-31T22:02:59.023Z,7.33
2019-01-31T22:05:27.998Z,6.43
2019-01-31T22:07:57.121Z,5.90
2019-01-31T22:10:26.353Z,5.33
2019-01-31T22:12:55.762Z,5.23
2019-01-31T22:15:26.938Z,4.73
2019-01-31T22:17:59.753Z,7.13
2019-01-31T22:20:26.715Z,5.43
2019-01-31T22:22:55.783Z,5.73
2019-01-31T22:25:26.133Z,5.50
2019-01-31T22:27:55.102Z,5.73
2019-01-31T22:30:26.208Z,7.67
2019-01-31T22:32:55.263Z,4.40
2019-01-31T22:35:24.387Z,4.70
2019-01-31T22:37:53.621Z,11.33
2019-01-31T22:40:22.663Z,4.33
2019-01-31T22:42:51.635Z,8.10
2019-01-31T22:45:21.582Z,3.63
2019-01-31T22:47:50.644Z,5.93
2019-01-31T22:50:20.682Z,7.80
2019-01-31T22:52:49.687Z,4.13
2019-01-31T22:55:20.381Z,7.20
2019-01-31T22:57:49.356Z,11.77
2019-01-31T23:00:51.186Z,4.97
2019-01-31T23:03:20.224Z,5.40
2019-01-31T23:05:49.196Z,5.33
2019-01-31T23:08:19.151Z,4.90
2019-01-31T23:10:48.123Z,4.80
2019-01-31T23:13:17.310Z,3.23
2019-01-31T23:15:46.895Z,4.10
2019-01-31T23:18:15.952Z,7.60
2019-01-31T23:20:45.026Z,6.23
2019-01-31T23:23:14.095Z,4.40
2019-01-31T23:25:43.136Z,3.73
2019-01-31T23:28:12.186Z,5.17
2019-01-31T23:30:41.185Z,5.90
2019-01-31T23:33:10.257Z,6.27
2019-01-31T23:35:39.290Z,4.13
2019-01-31T23:38:08.837Z,4.40
2019-01-31T23:40:37.910Z,4.50
2019-01-31T23:43:06.883Z,4.00
2019-01-31T23:45:35.957Z,3.73
2019-01-31T23:48:05.153Z,3.70
2019-01-31T23:50:34.193Z,5.47
2019-01-31T23:53:03.563Z,5.80
2019-01-31T23:55:32.631Z,3.70
2019-01-31T23:58:01.670Z,3.93
